METAR Data
IDs: Format: Raw Decoded Include TAF

Data at: 1148 UTC 24 May 2022

Region: TOP
KATL 241052Z 00000KT 10SM FEW005 SCT150 BKN250 21/19 A3006 RMK AO2 SLP171 VIRGA E-OHD-W T02060189

KBOS 241054Z 04012KT 10SM FEW090 BKN160 BKN250 13/04 A3034 RMK AO2 SLP273 T01280044

KBWI 241054Z 08006KT 7SM -RA SCT045 BKN060 OVC090 16/13 A3020 RMK AO2 SLP224 P0003 T01560133

KCLE 241051Z 04005KT 9SM FEW250 11/08 A3021 RMK AO2 SLP248 T01060078

KCLT 241117Z 33006KT 10SM BKN006 OVC016 17/16 A3007 RMK T01670156

KCVG 241052Z 06010KT 10SM FEW250 12/09 A3015 RMK AO2 SLP204 T01170094

KDCA 241126Z 06006KT 8SM -RA FEW009 SCT023 OVC040 16/14 A3022 RMK AO2 P0000 T01610139

KDEN 241140Z 03006KT 1/2SM R35L/P6000FT BR BKN003 OVC041 04/04 A3004 RMK AO2 SFC VIS 2 1/2 T00440039

KDFW 241053Z 14010G17KT 10SM -RA OVC012 20/17 A2982 RMK AO2 RAB25 SLP092 P0000 T02000172

KDTW 241053Z 02006KT 10SM FEW050 BKN100 OVC210 07/03 A3027 RMK AO2 SLP252 T00720033 PNO $

KEWR 241051Z VRB04KT 10SM SCT026 BKN090 OVC160 18/08 A3026 RMK AO2 SLP248 T01780078

KFLL 241053Z 12015G20KT 10SM FEW024 FEW250 27/22 A3001 RMK AO2 SLP162 T02670222 $

KIAD 241141Z 03006KT 5SM -RA BR BKN009 BKN018 OVC025 14/13 A3021 RMK AO2 P0002 T01440133

KIAH 241053Z 05005KT 7SM SCT008 BKN015 BKN038 OVC250 22/21 A2983 RMK AO2 SLP099 T02220206

KJFK 241051Z 05007KT 10SM FEW095 SCT130 BKN260 16/11 A3027 RMK AO2 SLP250 T01560111 $

KLAS 241056Z 03012KT 10SM FEW250 23/M11 A2989 RMK AO2 SLP097 T02281106

KLAX 241053Z VRB03KT 9SM OVC012 16/12 A2984 RMK AO2 SLP101 T01560122

KLGA 241051Z 06010KT 10SM FEW100 OVC170 16/11 A3027 RMK AO2 SLP249 T01560106

KMCO 241053Z 14006KT 10SM FEW080 SCT230 23/22 A3004 RMK AO2 SLP171 T02330222 $

KMDW 241053Z 06004KT 10SM BKN110 BKN140 BKN250 12/08 A3024 RMK AO2 SLP241 T01220078

KMEM 241122Z COR 09010KT 10SM OVC009 19/16 A3001 RMK AO2 T01890161

KMIA 241053Z 12012G22KT 10SM FEW036 FEW047 SCT070 27/22 A3002 RMK AO2 SLP166 T02720222 $

KMSP 241053Z 13005KT 10SM SCT110 BKN160 11/02 A3023 RMK AO2 SLP238 T01110022

KORD 241051Z 09004KT 10SM SCT110 BKN250 11/07 A3023 RMK AO2 SLP239 T01060067

KPDX 241053Z 00000KT 10SM BKN024 11/08 A3015 RMK AO2 SLP206 T01110078

KPHL 241054Z 09006KT 10SM -RA BKN065 OVC140 17/12 A3023 RMK AO2 RAB41 SLP237 P0000 T01670117 $

KPHX 241051Z 32009G17KT 10SM SCT250 26/M01 A2974 RMK AO2 SLP050 T02611006

KPIT 241051Z 05005KT 10SM FEW100 BKN250 11/08 A3017 RMK AO2 SLP226 T01110083

KSAN 241116Z 03003KT 10SM OVC015 15/12 A2985 RMK AO2 T01500117

KSEA 241053Z 27003KT 10SM SCT013 OVC021 11/08 A3015 RMK AO2 SLP214 T01110078

KSFO 241056Z 29003KT 10SM CLR 12/08 A2985 RMK AO2 SLP108 T01220078

KSLC 241054Z 14007KT 10SM SCT250 09/M04 A3003 RMK AO2 SLP140 T00941044

KSTL 241051Z 07005KT 10SM FEW130 BKN220 BKN250 13/08 A3010 RMK AO2 SLP190 T01280083

KTPA 241053Z 14005KT 10SM FEW017 BKN120 BKN210 26/22 A3002 RMK AO2 SLP165 T02610222